sensor_id;sensor_type;location;lat;lon;timestamp;P1;durP1;ratioP1;P2;durP2;ratioP2
68744;SDS011;66104;45.456;11.064;2023-03-14T00:01:35;16.10;;;11.50;;
68744;SDS011;66104;45.456;11.064;2023-03-14T00:04:13;20.00;;;12.10;;
68744;SDS011;66104;45.456;11.064;2023-03-14T00:06:50;16.20;;;12.20;;
68744;SDS011;66104;45.456;11.064;2023-03-14T00:09:26;16.40;;;11.50;;
68744;SDS011;66104;45.456;11.064;2023-03-14T00:12:05;17.50;;;12.00;;
68744;SDS011;66104;45.456;11.064;2023-03-14T00:14:43;18.00;;;12.80;;
68744;SDS011;66104;45.456;11.064;2023-03-14T00:17:20;18.90;;;12.50;;
68744;SDS011;66104;45.456;11.064;2023-03-14T00:19:57;15.90;;;11.90;;
68744;SDS011;66104;45.456;11.064;2023-03-14T00:22:36;17.60;;;12.50;;
68744;SDS011;66104;45.456;11.064;2023-03-14T00:25:14;16.50;;;11.70;;
68744;SDS011;66104;45.456;11.064;2023-03-14T00:27:52;16.70;;;11.70;;
68744;SDS011;66104;45.456;11.064;2023-03-14T00:30:29;14.90;;;11.20;;
68744;SDS011;66104;45.456;11.064;2023-03-14T00:33:05;16.10;;;11.70;;
68744;SDS011;66104;45.456;11.064;2023-03-14T00:35:45;17.40;;;11.90;;
68744;SDS011;66104;45.456;11.064;2023-03-14T00:38:29;14.70;;;11.30;;
68744;SDS011;66104;45.456;11.064;2023-03-14T00:41:10;15.10;;;11.20;;
68744;SDS011;66104;45.456;11.064;2023-03-14T00:43:47;16.80;;;12.60;;
68744;SDS011;66104;45.456;11.064;2023-03-14T00:46:23;16.60;;;11.90;;
68744;SDS011;66104;45.456;11.064;2023-03-14T00:49:00;18.80;;;13.40;;
68744;SDS011;66104;45.456;11.064;2023-03-14T00:51:37;20.30;;;14.70;;
68744;SDS011;66104;45.456;11.064;2023-03-14T00:54:14;18.70;;;11.60;;
68744;SDS011;66104;45.456;11.064;2023-03-14T00:56:51;17.10;;;12.60;;
68744;SDS011;66104;45.456;11.064;2023-03-14T00:59:28;19.70;;;13.40;;
68744;SDS011;66104;45.456;11.064;2023-03-14T01:02:05;17.40;;;11.70;;
68744;SDS011;66104;45.456;11.064;2023-03-14T01:04:41;17.60;;;11.20;;
68744;SDS011;66104;45.456;11.064;2023-03-14T01:07:20;15.40;;;10.40;;
68744;SDS011;66104;45.456;11.064;2023-03-14T01:09:58;16.90;;;11.40;;
68744;SDS011;66104;45.456;11.064;2023-03-14T01:12:34;17.10;;;11.10;;
68744;SDS011;66104;45.456;11.064;2023-03-14T01:15:14;14.50;;;11.00;;
68744;SDS011;66104;45.456;11.064;2023-03-14T01:17:50;15.10;;;10.30;;
68744;SDS011;66104;45.456;11.064;2023-03-14T01:20:26;15.00;;;10.10;;
68744;SDS011;66104;45.456;11.064;2023-03-14T01:23:03;15.40;;;10.90;;
68744;SDS011;66104;45.456;11.064;2023-03-14T01:25:42;13.50;;;9.90;;
68744;SDS011;66104;45.456;11.064;2023-03-14T01:28:19;13.40;;;8.40;;
68744;SDS011;66104;45.456;11.064;2023-03-14T01:30:55;14.40;;;8.80;;
68744;SDS011;66104;45.456;11.064;2023-03-14T01:33:36;14.40;;;9.50;;
68744;SDS011;66104;45.456;11.064;2023-03-14T01:36:14;12.80;;;9.00;;
68744;SDS011;66104;45.456;11.064;2023-03-14T01:38:51;14.80;;;8.70;;
68744;SDS011;66104;45.456;11.064;2023-03-14T01:41:28;14.90;;;9.20;;
68744;SDS011;66104;45.456;11.064;2023-03-14T01:44:05;12.90;;;8.90;;
68744;SDS011;66104;45.456;11.064;2023-03-14T01:46:45;14.50;;;9.70;;
68744;SDS011;66104;45.456;11.064;2023-03-14T01:49:26;12.80;;;8.20;;
68744;SDS011;66104;45.456;11.064;2023-03-14T01:52:12;14.10;;;8.70;;
68744;SDS011;66104;45.456;11.064;2023-03-14T01:54:55;11.90;;;7.90;;
68744;SDS011;66104;45.456;11.064;2023-03-14T01:57:39;11.70;;;7.70;;
68744;SDS011;66104;45.456;11.064;2023-03-14T02:00:21;13.40;;;8.00;;
68744;SDS011;66104;45.456;11.064;2023-03-14T02:03:05;10.60;;;7.40;;
68744;SDS011;66104;45.456;11.064;2023-03-14T02:05:46;11.60;;;7.30;;
68744;SDS011;66104;45.456;11.064;2023-03-14T02:08:23;11.40;;;7.90;;
68744;SDS011;66104;45.456;11.064;2023-03-14T02:11:06;10.90;;;7.70;;
68744;SDS011;66104;45.456;11.064;2023-03-14T02:14:04;12.60;;;7.50;;
68744;SDS011;66104;45.456;11.064;2023-03-14T02:17:03;12.30;;;6.60;;
68744;SDS011;66104;45.456;11.064;2023-03-14T02:23:05;13.50;;;7.40;;
68744;SDS011;66104;45.456;11.064;2023-03-14T02:25:47;12.00;;;7.70;;
68744;SDS011;66104;45.456;11.064;2023-03-14T02:28:30;11.30;;;6.30;;
68744;SDS011;66104;45.456;11.064;2023-03-14T02:31:08;16.90;;;7.80;;
68744;SDS011;66104;45.456;11.064;2023-03-14T02:33:46;11.80;;;8.00;;
68744;SDS011;66104;45.456;11.064;2023-03-14T02:36:23;11.70;;;6.70;;
68744;SDS011;66104;45.456;11.064;2023-03-14T02:39:09;10.30;;;7.10;;
68744;SDS011;66104;45.456;11.064;2023-03-14T02:41:50;10.50;;;6.80;;
68744;SDS011;66104;45.456;11.064;2023-03-14T02:44:27;10.80;;;5.60;;
68744;SDS011;66104;45.456;11.064;2023-03-14T02:47:04;10.50;;;6.50;;
68744;SDS011;66104;45.456;11.064;2023-03-14T02:49:41;10.30;;;6.50;;
68744;SDS011;66104;45.456;11.064;2023-03-14T02:52:18;11.20;;;6.80;;
68744;SDS011;66104;45.456;11.064;2023-03-14T02:54:55;10.30;;;5.90;;
68744;SDS011;66104;45.456;11.064;2023-03-14T02:57:31;11.50;;;6.50;;
68744;SDS011;66104;45.456;11.064;2023-03-14T03:00:13;10.70;;;6.80;;
68744;SDS011;66104;45.456;11.064;2023-03-14T03:02:53;9.40;;;6.30;;
68744;SDS011;66104;45.456;11.064;2023-03-14T03:05:30;11.80;;;7.50;;
68744;SDS011;66104;45.456;11.064;2023-03-14T03:08:06;9.80;;;6.50;;
68744;SDS011;66104;45.456;11.064;2023-03-14T03:10:44;12.40;;;7.00;;
68744;SDS011;66104;45.456;11.064;2023-03-14T03:13:21;8.70;;;6.40;;
68744;SDS011;66104;45.456;11.064;2023-03-14T03:15:58;11.70;;;6.60;;
68744;SDS011;66104;45.456;11.064;2023-03-14T03:18:37;9.40;;;5.60;;
68744;SDS011;66104;45.456;11.064;2023-03-14T03:21:14;14.50;;;7.00;;
68744;SDS011;66104;45.456;11.064;2023-03-14T03:23:49;10.90;;;6.60;;
68744;SDS011;66104;45.456;11.064;2023-03-14T03:26:28;10.70;;;6.30;;
68744;SDS011;66104;45.456;11.064;2023-03-14T03:29:07;12.20;;;6.80;;
68744;SDS011;66104;45.456;11.064;2023-03-14T03:31:44;12.50;;;6.80;;
68744;SDS011;66104;45.456;11.064;2023-03-14T03:34:21;16.50;;;7.30;;
68744;SDS011;66104;45.456;11.064;2023-03-14T03:37:00;14.90;;;7.90;;
68744;SDS011;66104;45.456;11.064;2023-03-14T03:39:39;10.80;;;6.10;;
68744;SDS011;66104;45.456;11.064;2023-03-14T03:42:16;12.70;;;7.10;;
68744;SDS011;66104;45.456;11.064;2023-03-14T03:44:53;12.80;;;7.10;;
68744;SDS011;66104;45.456;11.064;2023-03-14T03:47:30;11.20;;;7.50;;
68744;SDS011;66104;45.456;11.064;2023-03-14T03:50:08;14.50;;;7.50;;
68744;SDS011;66104;45.456;11.064;2023-03-14T03:52:47;10.80;;;5.90;;
68744;SDS011;66104;45.456;11.064;2023-03-14T03:55:23;11.80;;;7.70;;
68744;SDS011;66104;45.456;11.064;2023-03-14T03:58:00;9.80;;;6.60;;
68744;SDS011;66104;45.456;11.064;2023-03-14T04:00:37;11.80;;;7.50;;
68744;SDS011;66104;45.456;11.064;2023-03-14T04:03:14;14.60;;;7.70;;
68744;SDS011;66104;45.456;11.064;2023-03-14T04:06:00;13.90;;;7.80;;
68744;SDS011;66104;45.456;11.064;2023-03-14T04:08:40;10.30;;;6.80;;
68744;SDS011;66104;45.456;11.064;2023-03-14T04:11:31;11.50;;;7.00;;
68744;SDS011;66104;45.456;11.064;2023-03-14T04:14:33;13.00;;;6.90;;
68744;SDS011;66104;45.456;11.064;2023-03-14T04:17:15;11.90;;;7.40;;
68744;SDS011;66104;45.456;11.064;2023-03-14T04:19:53;13.20;;;8.30;;
68744;SDS011;66104;45.456;11.064;2023-03-14T04:22:37;13.70;;;7.50;;
68744;SDS011;66104;45.456;11.064;2023-03-14T04:25:15;10.50;;;5.50;;
68744;SDS011;66104;45.456;11.064;2023-03-14T04:27:55;12.50;;;7.00;;
68744;SDS011;66104;45.456;11.064;2023-03-14T04:30:32;11.10;;;7.50;;
68744;SDS011;66104;45.456;11.064;2023-03-14T04:33:13;13.10;;;6.60;;
68744;SDS011;66104;45.456;11.064;2023-03-14T04:35:57;10.90;;;6.30;;
68744;SDS011;66104;45.456;11.064;2023-03-14T04:38:33;11.90;;;7.00;;
68744;SDS011;66104;45.456;11.064;2023-03-14T04:41:10;12.80;;;6.90;;
68744;SDS011;66104;45.456;11.064;2023-03-14T04:43:48;9.70;;;6.20;;
68744;SDS011;66104;45.456;11.064;2023-03-14T04:46:25;12.40;;;6.30;;
68744;SDS011;66104;45.456;11.064;2023-03-14T04:49:03;14.80;;;7.70;;
68744;SDS011;66104;45.456;11.064;2023-03-14T04:51:41;9.50;;;6.70;;
68744;SDS011;66104;45.456;11.064;2023-03-14T04:54:18;9.10;;;6.10;;
68744;SDS011;66104;45.456;11.064;2023-03-14T04:56:59;9.30;;;5.80;;
68744;SDS011;66104;45.456;11.064;2023-03-14T04:59:38;10.70;;;6.70;;
68744;SDS011;66104;45.456;11.064;2023-03-14T05:02:26;9.70;;;6.70;;
68744;SDS011;66104;45.456;11.064;2023-03-14T05:05:18;8.10;;;4.60;;
68744;SDS011;66104;45.456;11.064;2023-03-14T05:08:19;11.20;;;6.60;;
68744;SDS011;66104;45.456;11.064;2023-03-14T05:11:19;15.30;;;5.20;;
68744;SDS011;66104;45.456;11.064;2023-03-14T05:14:06;12.00;;;6.60;;
68744;SDS011;66104;45.456;11.064;2023-03-14T05:16:57;10.60;;;6.10;;
68744;SDS011;66104;45.456;11.064;2023-03-14T05:19:43;11.40;;;6.50;;
68744;SDS011;66104;45.456;11.064;2023-03-14T05:23:07;9.60;;;5.70;;
68744;SDS011;66104;45.456;11.064;2023-03-14T05:26:03;13.10;;;6.90;;
68744;SDS011;66104;45.456;11.064;2023-03-14T05:29:06;11.70;;;6.40;;
68744;SDS011;66104;45.456;11.064;2023-03-14T05:32:00;10.70;;;6.10;;
68744;SDS011;66104;45.456;11.064;2023-03-14T05:34:56;15.90;;;6.40;;
68744;SDS011;66104;45.456;11.064;2023-03-14T05:37:43;11.70;;;5.70;;
68744;SDS011;66104;45.456;11.064;2023-03-14T05:40:53;11.50;;;6.50;;
68744;SDS011;66104;45.456;11.064;2023-03-14T05:43:48;13.90;;;6.40;;
68744;SDS011;66104;45.456;11.064;2023-03-14T05:46:48;12.70;;;7.90;;
68744;SDS011;66104;45.456;11.064;2023-03-14T05:49:28;11.80;;;6.90;;
68744;SDS011;66104;45.456;11.064;2023-03-14T05:52:26;9.80;;;5.60;;
68744;SDS011;66104;45.456;11.064;2023-03-14T05:55:13;10.20;;;5.90;;
68744;SDS011;66104;45.456;11.064;2023-03-14T05:57:59;9.80;;;5.60;;
68744;SDS011;66104;45.456;11.064;2023-03-14T06:01:06;10.30;;;5.00;;
68744;SDS011;66104;45.456;11.064;2023-03-14T06:04:18;9.60;;;5.40;;
68744;SDS011;66104;45.456;11.064;2023-03-14T06:06:58;6.30;;;4.10;;
68744;SDS011;66104;45.456;11.064;2023-03-14T06:09:35;11.00;;;5.30;;
68744;SDS011;66104;45.456;11.064;2023-03-14T06:12:13;9.60;;;4.60;;
68744;SDS011;66104;45.456;11.064;2023-03-14T06:14:50;10.40;;;5.80;;
68744;SDS011;66104;45.456;11.064;2023-03-14T06:17:28;11.00;;;5.90;;
68744;SDS011;66104;45.456;11.064;2023-03-14T06:20:13;12.10;;;6.20;;
68744;SDS011;66104;45.456;11.064;2023-03-14T06:22:54;14.10;;;6.60;;
68744;SDS011;66104;45.456;11.064;2023-03-14T06:25:34;12.20;;;6.30;;
68744;SDS011;66104;45.456;11.064;2023-03-14T06:28:10;15.30;;;7.30;;
68744;SDS011;66104;45.456;11.064;2023-03-14T06:30:47;14.80;;;6.80;;
68744;SDS011;66104;45.456;11.064;2023-03-14T06:33:24;13.80;;;6.60;;
68744;SDS011;66104;45.456;11.064;2023-03-14T06:36:04;15.30;;;6.90;;
68744;SDS011;66104;45.456;11.064;2023-03-14T06:38:45;10.60;;;5.60;;
68744;SDS011;66104;45.456;11.064;2023-03-14T06:41:23;14.60;;;6.70;;
68744;SDS011;66104;45.456;11.064;2023-03-14T06:44:01;16.70;;;7.10;;
68744;SDS011;66104;45.456;11.064;2023-03-14T06:46:40;14.30;;;6.90;;
68744;SDS011;66104;45.456;11.064;2023-03-14T06:49:17;16.10;;;7.10;;
68744;SDS011;66104;45.456;11.064;2023-03-14T06:51:56;12.70;;;6.10;;
68744;SDS011;66104;45.456;11.064;2023-03-14T06:54:35;12.50;;;5.30;;
68744;SDS011;66104;45.456;11.064;2023-03-14T06:57:11;8.90;;;4.90;;
68744;SDS011;66104;45.456;11.064;2023-03-14T06:59:49;9.60;;;5.00;;
68744;SDS011;66104;45.456;11.064;2023-03-14T07:02:26;12.90;;;5.40;;
68744;SDS011;66104;45.456;11.064;2023-03-14T07:05:21;13.50;;;6.20;;
68744;SDS011;66104;45.456;11.064;2023-03-14T07:07:58;12.50;;;6.90;;
68744;SDS011;66104;45.456;11.064;2023-03-14T07:10:34;13.40;;;6.10;;
68744;SDS011;66104;45.456;11.064;2023-03-14T07:13:11;10.70;;;5.90;;
68744;SDS011;66104;45.456;11.064;2023-03-14T07:15:55;12.40;;;5.70;;
68744;SDS011;66104;45.456;11.064;2023-03-14T07:18:31;11.40;;;5.70;;
68744;SDS011;66104;45.456;11.064;2023-03-14T07:21:09;12.70;;;5.80;;
68744;SDS011;66104;45.456;11.064;2023-03-14T07:23:45;11.10;;;5.30;;
68744;SDS011;66104;45.456;11.064;2023-03-14T07:26:22;14.00;;;4.80;;
68744;SDS011;66104;45.456;11.064;2023-03-14T07:28:59;10.80;;;4.30;;
68744;SDS011;66104;45.456;11.064;2023-03-14T07:31:36;10.40;;;4.70;;
68744;SDS011;66104;45.456;11.064;2023-03-14T07:34:14;10.00;;;5.00;;
68744;SDS011;66104;45.456;11.064;2023-03-14T07:36:52;9.60;;;5.10;;
68744;SDS011;66104;45.456;11.064;2023-03-14T07:39:29;7.60;;;4.00;;
68744;SDS011;66104;45.456;11.064;2023-03-14T07:42:12;11.00;;;5.80;;
68744;SDS011;66104;45.456;11.064;2023-03-14T07:45:05;10.30;;;4.60;;
68744;SDS011;66104;45.456;11.064;2023-03-14T07:47:45;8.30;;;3.70;;
68744;SDS011;66104;45.456;11.064;2023-03-14T07:50:22;9.30;;;4.30;;
68744;SDS011;66104;45.456;11.064;2023-03-14T07:53:01;11.90;;;4.90;;
68744;SDS011;66104;45.456;11.064;2023-03-14T07:55:39;11.90;;;5.40;;
68744;SDS011;66104;45.456;11.064;2023-03-14T07:58:16;11.00;;;5.30;;
68744;SDS011;66104;45.456;11.064;2023-03-14T08:00:58;9.40;;;4.80;;
68744;SDS011;66104;45.456;11.064;2023-03-14T08:03:35;8.80;;;4.90;;
68744;SDS011;66104;45.456;11.064;2023-03-14T08:06:12;12.50;;;5.50;;
68744;SDS011;66104;45.456;11.064;2023-03-14T08:08:48;10.40;;;5.70;;
68744;SDS011;66104;45.456;11.064;2023-03-14T08:11:24;8.60;;;4.30;;
68744;SDS011;66104;45.456;11.064;2023-03-14T08:14:01;10.30;;;5.10;;
68744;SDS011;66104;45.456;11.064;2023-03-14T08:16:38;8.40;;;4.30;;
68744;SDS011;66104;45.456;11.064;2023-03-14T08:19:15;8.90;;;5.30;;
68744;SDS011;66104;45.456;11.064;2023-03-14T08:21:51;9.10;;;4.30;;
68744;SDS011;66104;45.456;11.064;2023-03-14T08:24:29;9.90;;;5.00;;
68744;SDS011;66104;45.456;11.064;2023-03-14T08:27:08;7.20;;;4.40;;
68744;SDS011;66104;45.456;11.064;2023-03-14T08:29:46;10.70;;;4.80;;
68744;SDS011;66104;45.456;11.064;2023-03-14T08:32:23;8.30;;;4.70;;
68744;SDS011;66104;45.456;11.064;2023-03-14T08:35:00;8.20;;;3.80;;
68744;SDS011;66104;45.456;11.064;2023-03-14T08:37:38;9.40;;;3.40;;
68744;SDS011;66104;45.456;11.064;2023-03-14T08:40:18;8.30;;;3.80;;
68744;SDS011;66104;45.456;11.064;2023-03-14T08:42:55;9.00;;;3.30;;
68744;SDS011;66104;45.456;11.064;2023-03-14T08:45:33;8.50;;;4.30;;
68744;SDS011;66104;45.456;11.064;2023-03-14T08:48:09;11.40;;;4.80;;
68744;SDS011;66104;45.456;11.064;2023-03-14T08:50:47;9.70;;;4.70;;
68744;SDS011;66104;45.456;11.064;2023-03-14T08:53:23;6.50;;;3.00;;
68744;SDS011;66104;45.456;11.064;2023-03-14T08:56:01;8.10;;;3.50;;
68744;SDS011;66104;45.456;11.064;2023-03-14T08:58:40;7.70;;;3.20;;
68744;SDS011;66104;45.456;11.064;2023-03-14T09:01:17;4.90;;;2.60;;
68744;SDS011;66104;45.456;11.064;2023-03-14T09:03:57;6.50;;;3.50;;
68744;SDS011;66104;45.456;11.064;2023-03-14T09:06:34;7.20;;;3.80;;
68744;SDS011;66104;45.456;11.064;2023-03-14T09:09:10;8.90;;;3.70;;
68744;SDS011;66104;45.456;11.064;2023-03-14T09:11:47;7.20;;;3.80;;
68744;SDS011;66104;45.456;11.064;2023-03-14T09:14:24;4.60;;;2.70;;
68744;SDS011;66104;45.456;11.064;2023-03-14T09:17:04;7.70;;;3.30;;
68744;SDS011;66104;45.456;11.064;2023-03-14T09:19:41;6.90;;;3.30;;
68744;SDS011;66104;45.456;11.064;2023-03-14T09:22:17;6.80;;;3.60;;
68744;SDS011;66104;45.456;11.064;2023-03-14T09:24:54;8.40;;;3.70;;
68744;SDS011;66104;45.456;11.064;2023-03-14T09:27:31;5.80;;;2.80;;
68744;SDS011;66104;45.456;11.064;2023-03-14T09:30:12;8.10;;;3.30;;
68744;SDS011;66104;45.456;11.064;2023-03-14T09:32:50;5.60;;;2.60;;
68744;SDS011;66104;45.456;11.064;2023-03-14T09:35:27;6.00;;;2.80;;
68744;SDS011;66104;45.456;11.064;2023-03-14T09:38:04;5.80;;;3.00;;
68744;SDS011;66104;45.456;11.064;2023-03-14T09:40:41;4.90;;;2.90;;
68744;SDS011;66104;45.456;11.064;2023-03-14T09:43:19;35.40;;;13.20;;
68744;SDS011;66104;45.456;11.064;2023-03-14T09:45:59;40.50;;;15.40;;
68744;SDS011;66104;45.456;11.064;2023-03-14T09:48:39;10.50;;;4.50;;
68744;SDS011;66104;45.456;11.064;2023-03-14T09:51:18;24.30;;;9.30;;
68744;SDS011;66104;45.456;11.064;2023-03-14T09:53:58;30.90;;;12.00;;
68744;SDS011;66104;45.456;11.064;2023-03-14T09:56:35;23.60;;;9.80;;
68744;SDS011;66104;45.456;11.064;2023-03-14T09:59:14;31.10;;;12.50;;
68744;SDS011;66104;45.456;11.064;2023-03-14T10:01:52;28.20;;;11.70;;
68744;SDS011;66104;45.456;11.064;2023-03-14T10:04:31;27.90;;;11.30;;
68744;SDS011;66104;45.456;11.064;2023-03-14T10:07:17;14.20;;;6.10;;
68744;SDS011;66104;45.456;11.064;2023-03-14T10:09:57;15.00;;;7.00;;
68744;SDS011;66104;45.456;11.064;2023-03-14T10:12:45;12.10;;;6.10;;
68744;SDS011;66104;45.456;11.064;2023-03-14T10:15:31;6.50;;;3.40;;
68744;SDS011;66104;45.456;11.064;2023-03-14T10:18:12;6.50;;;3.70;;
68744;SDS011;66104;45.456;11.064;2023-03-14T10:21:00;6.60;;;3.60;;
68744;SDS011;66104;45.456;11.064;2023-03-14T10:23:40;7.00;;;3.90;;
68744;SDS011;66104;45.456;11.064;2023-03-14T10:26:26;6.80;;;3.50;;
68744;SDS011;66104;45.456;11.064;2023-03-14T10:29:11;6.50;;;4.20;;
68744;SDS011;66104;45.456;11.064;2023-03-14T10:31:57;5.90;;;3.80;;
68744;SDS011;66104;45.456;11.064;2023-03-14T10:34:36;6.60;;;3.30;;
68744;SDS011;66104;45.456;11.064;2023-03-14T10:37:21;5.50;;;3.40;;
68744;SDS011;66104;45.456;11.064;2023-03-14T10:40:02;5.90;;;3.00;;
68744;SDS011;66104;45.456;11.064;2023-03-14T10:42:48;4.50;;;3.00;;
68744;SDS011;66104;45.456;11.064;2023-03-14T10:45:35;4.90;;;2.90;;
68744;SDS011;66104;45.456;11.064;2023-03-14T10:48:34;4.20;;;2.70;;
68744;SDS011;66104;45.456;11.064;2023-03-14T10:51:24;4.20;;;3.10;;
68744;SDS011;66104;45.456;11.064;2023-03-14T10:54:03;5.40;;;2.70;;
68744;SDS011;66104;45.456;11.064;2023-03-14T10:57:00;6.20;;;3.20;;
68744;SDS011;66104;45.456;11.064;2023-03-14T10:59:41;5.00;;;2.90;;
68744;SDS011;66104;45.456;11.064;2023-03-14T11:02:43;4.80;;;3.10;;
68744;SDS011;66104;45.456;11.064;2023-03-14T11:05:43;5.30;;;3.20;;
68744;SDS011;66104;45.456;11.064;2023-03-14T11:08:29;6.60;;;4.10;;
68744;SDS011;66104;45.456;11.064;2023-03-14T11:11:19;5.80;;;3.40;;
68744;SDS011;66104;45.456;11.064;2023-03-14T11:14:11;5.70;;;3.10;;
68744;SDS011;66104;45.456;11.064;2023-03-14T11:17:04;4.20;;;2.60;;
68744;SDS011;66104;45.456;11.064;2023-03-14T11:19:57;4.40;;;2.60;;
68744;SDS011;66104;45.456;11.064;2023-03-14T11:22:50;4.70;;;3.00;;
68744;SDS011;66104;45.456;11.064;2023-03-14T11:25:36;3.60;;;2.80;;
68744;SDS011;66104;45.456;11.064;2023-03-14T11:28:21;5.30;;;3.00;;
68744;SDS011;66104;45.456;11.064;2023-03-14T11:31:07;6.20;;;2.80;;
68744;SDS011;66104;45.456;11.064;2023-03-14T11:33:56;5.00;;;2.80;;
68744;SDS011;66104;45.456;11.064;2023-03-14T11:36:38;5.20;;;3.10;;
68744;SDS011;66104;45.456;11.064;2023-03-14T11:39:19;7.10;;;3.80;;
68744;SDS011;66104;45.456;11.064;2023-03-14T11:42:00;5.20;;;3.20;;
68744;SDS011;66104;45.456;11.064;2023-03-14T11:44:39;5.70;;;3.10;;
68744;SDS011;66104;45.456;11.064;2023-03-14T11:47:22;7.70;;;4.30;;
68744;SDS011;66104;45.456;11.064;2023-03-14T11:50:12;5.00;;;3.10;;
68744;SDS011;66104;45.456;11.064;2023-03-14T11:52:55;4.30;;;2.90;;
68744;SDS011;66104;45.456;11.064;2023-03-14T11:55:41;5.00;;;2.90;;
68744;SDS011;66104;45.456;11.064;2023-03-14T11:58:23;3.80;;;2.70;;
68744;SDS011;66104;45.456;11.064;2023-03-14T12:01:06;5.40;;;3.00;;
68744;SDS011;66104;45.456;11.064;2023-03-14T12:07:21;4.90;;;2.80;;
68744;SDS011;66104;45.456;11.064;2023-03-14T12:10:02;4.70;;;3.00;;
68744;SDS011;66104;45.456;11.064;2023-03-14T12:12:40;4.30;;;3.00;;
68744;SDS011;66104;45.456;11.064;2023-03-14T12:15:21;4.90;;;3.70;;
68744;SDS011;66104;45.456;11.064;2023-03-14T12:17:59;4.80;;;3.80;;
68744;SDS011;66104;45.456;11.064;2023-03-14T12:20:38;4.70;;;3.30;;
68744;SDS011;66104;45.456;11.064;2023-03-14T12:23:26;7.00;;;3.50;;
68744;SDS011;66104;45.456;11.064;2023-03-14T12:26:17;5.50;;;3.40;;
68744;SDS011;66104;45.456;11.064;2023-03-14T12:29:14;4.50;;;2.80;;
68744;SDS011;66104;45.456;11.064;2023-03-14T12:31:50;5.40;;;3.50;;
68744;SDS011;66104;45.456;11.064;2023-03-14T12:34:44;4.50;;;3.30;;
68744;SDS011;66104;45.456;11.064;2023-03-14T12:37:28;4.20;;;2.80;;
68744;SDS011;66104;45.456;11.064;2023-03-14T12:40:17;8.60;;;3.30;;
68744;SDS011;66104;45.456;11.064;2023-03-14T12:43:04;4.10;;;3.00;;
68744;SDS011;66104;45.456;11.064;2023-03-14T12:46:20;5.40;;;3.30;;
68744;SDS011;66104;45.456;11.064;2023-03-14T12:49:07;5.10;;;2.90;;
68744;SDS011;66104;45.456;11.064;2023-03-14T12:51:44;4.30;;;3.00;;
68744;SDS011;66104;45.456;11.064;2023-03-14T12:54:38;4.90;;;2.70;;
68744;SDS011;66104;45.456;11.064;2023-03-14T12:57:28;6.80;;;3.30;;
68744;SDS011;66104;45.456;11.064;2023-03-14T13:00:20;4.00;;;2.90;;
68744;SDS011;66104;45.456;11.064;2023-03-14T13:03:12;6.40;;;3.80;;
68744;SDS011;66104;45.456;11.064;2023-03-14T13:05:58;4.70;;;3.30;;
68744;SDS011;66104;45.456;11.064;2023-03-14T13:08:40;5.20;;;3.60;;
68744;SDS011;66104;45.456;11.064;2023-03-14T13:11:20;5.70;;;4.10;;
68744;SDS011;66104;45.456;11.064;2023-03-14T13:13:58;6.30;;;4.10;;
68744;SDS011;66104;45.456;11.064;2023-03-14T13:16:38;6.20;;;4.40;;
68744;SDS011;66104;45.456;11.064;2023-03-14T13:19:18;8.30;;;6.70;;
68744;SDS011;66104;45.456;11.064;2023-03-14T13:21:59;15.90;;;14.30;;
68744;SDS011;66104;45.456;11.064;2023-03-14T13:24:37;14.90;;;12.40;;
68744;SDS011;66104;45.456;11.064;2023-03-14T13:27:19;10.90;;;9.00;;
68744;SDS011;66104;45.456;11.064;2023-03-14T13:29:57;12.20;;;9.10;;
68744;SDS011;66104;45.456;11.064;2023-03-14T13:32:43;9.20;;;7.50;;
68744;SDS011;66104;45.456;11.064;2023-03-14T13:35:22;6.10;;;5.20;;
68744;SDS011;66104;45.456;11.064;2023-03-14T13:38:01;6.30;;;4.40;;
68744;SDS011;66104;45.456;11.064;2023-03-14T13:40:44;5.60;;;3.80;;
68744;SDS011;66104;45.456;11.064;2023-03-14T13:43:27;5.00;;;3.90;;
68744;SDS011;66104;45.456;11.064;2023-03-14T13:46:11;4.60;;;3.30;;
68744;SDS011;66104;45.456;11.064;2023-03-14T13:48:53;3.90;;;2.80;;
68744;SDS011;66104;45.456;11.064;2023-03-14T13:51:31;3.60;;;2.70;;
68744;SDS011;66104;45.456;11.064;2023-03-14T13:54:15;5.00;;;2.80;;
68744;SDS011;66104;45.456;11.064;2023-03-14T13:57:01;4.10;;;2.70;;
68744;SDS011;66104;45.456;11.064;2023-03-14T13:59:39;3.70;;;2.60;;
68744;SDS011;66104;45.456;11.064;2023-03-14T14:02:16;3.80;;;2.40;;
68744;SDS011;66104;45.456;11.064;2023-03-14T14:04:54;3.60;;;2.40;;
68744;SDS011;66104;45.456;11.064;2023-03-14T14:07:33;4.20;;;2.40;;
68744;SDS011;66104;45.456;11.064;2023-03-14T14:10:13;5.00;;;3.00;;
68744;SDS011;66104;45.456;11.064;2023-03-14T14:12:52;3.70;;;2.50;;
68744;SDS011;66104;45.456;11.064;2023-03-14T14:15:36;3.30;;;2.30;;
68744;SDS011;66104;45.456;11.064;2023-03-14T14:18:18;3.90;;;2.80;;
68744;SDS011;66104;45.456;11.064;2023-03-14T14:20:59;4.50;;;2.60;;
68744;SDS011;66104;45.456;11.064;2023-03-14T14:23:37;5.00;;;3.20;;
68744;SDS011;66104;45.456;11.064;2023-03-14T14:26:19;3.60;;;2.90;;
68744;SDS011;66104;45.456;11.064;2023-03-14T14:29:03;5.20;;;3.10;;
68744;SDS011;66104;45.456;11.064;2023-03-14T14:31:40;4.10;;;2.90;;
68744;SDS011;66104;45.456;11.064;2023-03-14T14:34:22;4.40;;;3.00;;
68744;SDS011;66104;45.456;11.064;2023-03-14T14:37:00;5.60;;;3.10;;
68744;SDS011;66104;45.456;11.064;2023-03-14T14:39:37;5.10;;;3.00;;
68744;SDS011;66104;45.456;11.064;2023-03-14T14:42:19;4.00;;;2.30;;
68744;SDS011;66104;45.456;11.064;2023-03-14T14:44:58;3.20;;;2.20;;
68744;SDS011;66104;45.456;11.064;2023-03-14T14:47:35;2.40;;;1.40;;
68744;SDS011;66104;45.456;11.064;2023-03-14T14:50:30;2.10;;;1.40;;
68744;SDS011;66104;45.456;11.064;2023-03-14T14:53:22;3.40;;;2.00;;
68744;SDS011;66104;45.456;11.064;2023-03-14T14:56:03;3.20;;;1.70;;
68744;SDS011;66104;45.456;11.064;2023-03-14T14:58:45;2.40;;;1.60;;
68744;SDS011;66104;45.456;11.064;2023-03-14T15:01:25;3.40;;;1.60;;
68744;SDS011;66104;45.456;11.064;2023-03-14T15:04:10;3.40;;;1.70;;
68744;SDS011;66104;45.456;11.064;2023-03-14T15:06:50;3.00;;;1.90;;
68744;SDS011;66104;45.456;11.064;2023-03-14T15:09:28;2.40;;;1.50;;
68744;SDS011;66104;45.456;11.064;2023-03-14T15:12:06;3.10;;;1.60;;
68744;SDS011;66104;45.456;11.064;2023-03-14T15:14:44;2.60;;;1.90;;
68744;SDS011;66104;45.456;11.064;2023-03-14T15:17:20;3.00;;;1.80;;
68744;SDS011;66104;45.456;11.064;2023-03-14T15:19:57;2.90;;;1.60;;
68744;SDS011;66104;45.456;11.064;2023-03-14T15:22:33;3.20;;;1.80;;
68744;SDS011;66104;45.456;11.064;2023-03-14T15:25:11;3.50;;;2.10;;
68744;SDS011;66104;45.456;11.064;2023-03-14T15:28:30;4.60;;;2.20;;
68744;SDS011;66104;45.456;11.064;2023-03-14T15:31:09;3.40;;;2.10;;
68744;SDS011;66104;45.456;11.064;2023-03-14T15:33:46;3.80;;;2.40;;
68744;SDS011;66104;45.456;11.064;2023-03-14T15:36:26;3.00;;;2.10;;
68744;SDS011;66104;45.456;11.064;2023-03-14T15:39:06;3.20;;;2.20;;
68744;SDS011;66104;45.456;11.064;2023-03-14T15:41:43;2.50;;;1.80;;
68744;SDS011;66104;45.456;11.064;2023-03-14T15:44:20;4.20;;;2.40;;
68744;SDS011;66104;45.456;11.064;2023-03-14T15:46:57;2.90;;;2.30;;
68744;SDS011;66104;45.456;11.064;2023-03-14T15:49:34;3.60;;;2.40;;
68744;SDS011;66104;45.456;11.064;2023-03-14T15:52:14;3.60;;;2.60;;
68744;SDS011;66104;45.456;11.064;2023-03-14T15:54:51;4.00;;;2.50;;
68744;SDS011;66104;45.456;11.064;2023-03-14T15:57:27;4.90;;;3.00;;